LEIBLFKB

Guest
Details From LEIB - Ibiza
To LFKB - Bastia Poretta
Flight Number -
Tags decoded
Created
Modified
Stats Distance 445 nm / 825 km
Max Altitude 0 ft / 0 m
Waypoints 5
Social Downloads 5
Likes 0
Share VATSIM

Download

Looking for another format? Having issues loading an existing format? Contact us
Advertisement - Login to hide

Notes

Requested: LEIB PTC AJO LIBLO LFKB

Route

LEIB PTC AJO LIBLO LFKB

ID Type Via Altitude Latitude Longitude Leg Dist Tot Dist Heading (true) Name
O LEIB APT - 0 ft / 0 m 38.87287˚ 1.37304˚ - 0 nm - Ibiza
PTC NDB - 0 ft / 0 m 39.42732˚ 3.25672˚ 93 nm 93 nm 69° / 70° PORTO COLOM LOM
AJO VOR - 0 ft / 0 m 41.77053˚ 8.77467˚ 288 nm 382 nm 59° / 63° AJACCIO VOR-DME
LIBLO FIX - 0 ft / 0 m 42.25111˚ 8.82833˚ 28 nm 411 nm 5° / 5° -
O LFKB APT - 0 ft / 0 m 42.55251˚ 9.48371˚ 34 nm 445 nm 58° / 58° Bastia Poretta

Altitude Profile

Advertisement - Login to hide

Weather


0- 5 10 15 20 25 30 35+ Temperature / ° C

Clouds and Precipitation
Forecast for 2018-05-26 00:00 UTC. Updated 4 hours ago

Ground ~20,000 ft ~40,000 ft Winds

LEIB

Details ICAO LEIB (IBZ)
Name Ibiza
Region Spain
Timezone Europe/Madrid (UTC+2.0)
Stats Elevation 20 ft / 6 m (AMSL)
Location 38.872871° 1.373045°
Runways 1
Magnetic Variation 0.711° E

METAR

LEIB 260300Z 36003KT 9000 SCT005 16/15 Q1013 NOSIG

Decode

TAF

TAF LEIB 260200Z 2603/2703 VRB03KT 9999 FEW010 TX25/2612Z TN15/2606Z TEMPO 2603/2607 3000 BR FEW008 BKN010 BECMG 2609/2611 12010KT BECMG 2618/2620 VRB03KT

Decode

Departure Runways

ID Width Length Bearing (true) Bearing (mag) Surface Threshold Offset Overrun Length
06 148 ft / 45 m 9,153 ft / 2,790 m 61.85° 61.14° Asphalt 0 ft / 0 m 213 ft / 65 m
24 148 ft / 45 m 9,153 ft / 2,790 m 241.86° 241.15° Asphalt 0 ft / 0 m 197 ft / 60 m

LFKB

Details ICAO LFKB (BIA)
Name Bastia Poretta
Region France
Timezone Europe/Paris (UTC+2.0)
Stats Elevation 25 ft / 8 m (AMSL)
Location 42.552508° 9.483709°
Runways 1
Magnetic Variation 2.533° E

METAR

LFKB 260300Z AUTO 23005KT 200V270 CAVOK 16/14 Q1017 TEMPO BKN008

Decode

TAF

TAF LFKB 260200Z 2603/2703 24005KT CAVOK PROB30 TEMPO 2603/2606 BKN008 BECMG 2607/2610 08010KT BECMG 2618/2621 24004KT TX26/2612Z TN15/2603Z

Decode

Destination Runways

ID Width Length Bearing (true) Bearing (mag) Surface Threshold Offset Overrun Length
16 148 ft / 45 m 8,273 ft / 2,522 m 162.83° 160.30° Concrete 0 ft / 0 m 131 ft / 40 m
34 148 ft / 45 m 8,273 ft / 2,522 m 342.84° 340.31° Concrete 0 ft / 0 m 0 ft / 0 m

Approach Navaids

Runway Type Ident Frequency Range Bearing (true) Bearing (mag) Slope Elevation
34 Localiser BP 111.35 MHz 27 nm / 50 km 342.81° 340.28° - 25 ft / 8 m (AMSL)
34 Glidescope BP 111.35 MHz 27 nm / 50 km 342.81° 340.28° 3.00° 25 ft / 8 m (AMSL)
34 DME BP 111.35 MHz 18 nm / 33 km - - - 69 ft / 21 m (AMSL)